sensor_id;sensor_type;location;lat;lon;timestamp;temperature;humidity
12655;DHT22;6392;44.644;11.448;2023-03-25T00:02:23;15.80;99.90
12655;DHT22;6392;44.644;11.448;2023-03-25T00:04:53;15.80;99.90
12655;DHT22;6392;44.644;11.448;2023-03-25T00:07:20;15.80;99.90
12655;DHT22;6392;44.644;11.448;2023-03-25T00:09:47;15.90;99.90
12655;DHT22;6392;44.644;11.448;2023-03-25T00:12:15;15.90;99.90
12655;DHT22;6392;44.644;11.448;2023-03-25T00:14:42;15.90;99.90
12655;DHT22;6392;44.644;11.448;2023-03-25T00:17:19;16.00;99.90
12655;DHT22;6392;44.644;11.448;2023-03-25T00:19:47;16.10;99.90
12655;DHT22;6392;44.644;11.448;2023-03-25T00:22:16;16.10;99.90
12655;DHT22;6392;44.644;11.448;2023-03-25T00:24:43;16.00;99.90
12655;DHT22;6392;44.644;11.448;2023-03-25T00:27:10;16.00;99.90
12655;DHT22;6392;44.644;11.448;2023-03-25T00:29:39;16.00;99.90
12655;DHT22;6392;44.644;11.448;2023-03-25T00:32:06;16.00;99.90
12655;DHT22;6392;44.644;11.448;2023-03-25T00:34:33;16.00;99.90
12655;DHT22;6392;44.644;11.448;2023-03-25T00:37:08;16.00;99.90
12655;DHT22;6392;44.644;11.448;2023-03-25T00:39:35;16.10;99.90
12655;DHT22;6392;44.644;11.448;2023-03-25T00:42:03;16.10;99.90
12655;DHT22;6392;44.644;11.448;2023-03-25T00:44:30;16.10;99.90
12655;DHT22;6392;44.644;11.448;2023-03-25T00:46:57;16.20;99.90
12655;DHT22;6392;44.644;11.448;2023-03-25T00:49:24;16.20;99.90
12655;DHT22;6392;44.644;11.448;2023-03-25T00:51:53;16.20;99.90
12655;DHT22;6392;44.644;11.448;2023-03-25T00:54:22;16.20;99.90
12655;DHT22;6392;44.644;11.448;2023-03-25T00:56:50;16.20;99.90
12655;DHT22;6392;44.644;11.448;2023-03-25T00:59:18;16.10;99.90
12655;DHT22;6392;44.644;11.448;2023-03-25T01:01:45;16.10;99.90
12655;DHT22;6392;44.644;11.448;2023-03-25T01:04:12;16.10;99.90
12655;DHT22;6392;44.644;11.448;2023-03-25T01:06:41;16.10;99.90
12655;DHT22;6392;44.644;11.448;2023-03-25T01:09:11;16.10;99.90
12655;DHT22;6392;44.644;11.448;2023-03-25T01:11:43;16.10;99.90
12655;DHT22;6392;44.644;11.448;2023-03-25T01:14:13;16.10;99.90
12655;DHT22;6392;44.644;11.448;2023-03-25T01:16:41;16.10;99.90
12655;DHT22;6392;44.644;11.448;2023-03-25T01:19:09;16.10;99.90
12655;DHT22;6392;44.644;11.448;2023-03-25T01:21:36;16.10;99.90
12655;DHT22;6392;44.644;11.448;2023-03-25T01:24:04;16.00;99.90
12655;DHT22;6392;44.644;11.448;2023-03-25T01:26:32;15.90;99.90
12655;DHT22;6392;44.644;11.448;2023-03-25T01:29:01;15.80;99.90
12655;DHT22;6392;44.644;11.448;2023-03-25T01:31:28;15.80;99.90
12655;DHT22;6392;44.644;11.448;2023-03-25T01:33:55;15.70;99.90
12655;DHT22;6392;44.644;11.448;2023-03-25T01:36:22;15.60;99.90
12655;DHT22;6392;44.644;11.448;2023-03-25T01:38:50;15.60;99.90
12655;DHT22;6392;44.644;11.448;2023-03-25T01:41:18;15.50;99.90
12655;DHT22;6392;44.644;11.448;2023-03-25T01:46:38;15.50;99.90
12655;DHT22;6392;44.644;11.448;2023-03-25T01:49:12;15.40;99.90
12655;DHT22;6392;44.644;11.448;2023-03-25T01:51:42;15.20;99.90
12655;DHT22;6392;44.644;11.448;2023-03-25T01:54:12;15.20;99.90
12655;DHT22;6392;44.644;11.448;2023-03-25T01:56:42;15.10;99.90
12655;DHT22;6392;44.644;11.448;2023-03-25T01:59:12;15.10;99.90
12655;DHT22;6392;44.644;11.448;2023-03-25T02:01:44;15.00;99.90
12655;DHT22;6392;44.644;11.448;2023-03-25T02:04:12;15.00;99.90
12655;DHT22;6392;44.644;11.448;2023-03-25T02:06:42;14.90;99.90
12655;DHT22;6392;44.644;11.448;2023-03-25T02:09:12;14.80;99.90
12655;DHT22;6392;44.644;11.448;2023-03-25T02:11:40;14.80;99.90
12655;DHT22;6392;44.644;11.448;2023-03-25T02:14:09;14.80;99.90
12655;DHT22;6392;44.644;11.448;2023-03-25T02:16:45;14.80;99.90
12655;DHT22;6392;44.644;11.448;2023-03-25T02:19:43;14.70;99.90
12655;DHT22;6392;44.644;11.448;2023-03-25T02:25:52;14.60;99.90
12655;DHT22;6392;44.644;11.448;2023-03-25T02:28:26;14.60;99.90
12655;DHT22;6392;44.644;11.448;2023-03-25T02:31:17;14.50;99.90
12655;DHT22;6392;44.644;11.448;2023-03-25T02:34:11;14.50;99.90
12655;DHT22;6392;44.644;11.448;2023-03-25T02:37:05;14.50;99.90
12655;DHT22;6392;44.644;11.448;2023-03-25T02:39:43;14.40;99.90
12655;DHT22;6392;44.644;11.448;2023-03-25T02:42:15;14.40;99.90
12655;DHT22;6392;44.644;11.448;2023-03-25T02:44:49;14.30;99.90
12655;DHT22;6392;44.644;11.448;2023-03-25T02:47:22;14.30;99.90
12655;DHT22;6392;44.644;11.448;2023-03-25T02:49:54;14.20;99.90
12655;DHT22;6392;44.644;11.448;2023-03-25T02:52:24;14.20;99.90
12655;DHT22;6392;44.644;11.448;2023-03-25T02:54:56;14.20;99.90
12655;DHT22;6392;44.644;11.448;2023-03-25T02:57:27;14.30;99.90
12655;DHT22;6392;44.644;11.448;2023-03-25T02:59:56;14.30;99.90
12655;DHT22;6392;44.644;11.448;2023-03-25T03:02:26;14.30;99.90
12655;DHT22;6392;44.644;11.448;2023-03-25T03:04:56;14.30;99.90
12655;DHT22;6392;44.644;11.448;2023-03-25T03:07:25;14.20;99.90
12655;DHT22;6392;44.644;11.448;2023-03-25T03:10:02;14.20;99.90
12655;DHT22;6392;44.644;11.448;2023-03-25T03:12:48;14.20;99.90
12655;DHT22;6392;44.644;11.448;2023-03-25T03:15:25;14.10;99.90
12655;DHT22;6392;44.644;11.448;2023-03-25T03:18:04;14.10;99.90
12655;DHT22;6392;44.644;11.448;2023-03-25T03:20:39;14.10;99.90
12655;DHT22;6392;44.644;11.448;2023-03-25T03:23:13;14.10;99.90
12655;DHT22;6392;44.644;11.448;2023-03-25T03:25:51;14.10;99.90
12655;DHT22;6392;44.644;11.448;2023-03-25T03:28:24;14.00;99.90
12655;DHT22;6392;44.644;11.448;2023-03-25T03:30:59;14.10;99.90
12655;DHT22;6392;44.644;11.448;2023-03-25T03:33:34;14.00;99.90
12655;DHT22;6392;44.644;11.448;2023-03-25T03:36:07;14.00;99.90
12655;DHT22;6392;44.644;11.448;2023-03-25T03:38:38;14.00;99.90
12655;DHT22;6392;44.644;11.448;2023-03-25T03:41:10;14.00;99.90
12655;DHT22;6392;44.644;11.448;2023-03-25T03:43:40;14.00;99.90
12655;DHT22;6392;44.644;11.448;2023-03-25T03:46:13;14.00;99.90
12655;DHT22;6392;44.644;11.448;2023-03-25T03:48:44;14.00;99.90
12655;DHT22;6392;44.644;11.448;2023-03-25T03:51:15;14.10;99.90
12655;DHT22;6392;44.644;11.448;2023-03-25T03:53:49;14.10;99.90
12655;DHT22;6392;44.644;11.448;2023-03-25T03:56:22;14.10;99.90
12655;DHT22;6392;44.644;11.448;2023-03-25T03:58:53;14.10;99.90
12655;DHT22;6392;44.644;11.448;2023-03-25T04:01:27;14.20;99.90
12655;DHT22;6392;44.644;11.448;2023-03-25T04:04:02;14.20;99.90
12655;DHT22;6392;44.644;11.448;2023-03-25T04:06:33;14.20;99.90
12655;DHT22;6392;44.644;11.448;2023-03-25T04:09:09;14.20;99.90
12655;DHT22;6392;44.644;11.448;2023-03-25T04:11:47;14.30;99.90
12655;DHT22;6392;44.644;11.448;2023-03-25T04:14:16;14.20;99.90
12655;DHT22;6392;44.644;11.448;2023-03-25T04:16:44;14.30;99.90
12655;DHT22;6392;44.644;11.448;2023-03-25T04:19:11;14.20;99.90
12655;DHT22;6392;44.644;11.448;2023-03-25T04:21:43;14.10;99.90
12655;DHT22;6392;44.644;11.448;2023-03-25T04:24:12;14.10;99.90
12655;DHT22;6392;44.644;11.448;2023-03-25T04:26:41;14.10;99.90
12655;DHT22;6392;44.644;11.448;2023-03-25T04:29:10;13.90;99.90
12655;DHT22;6392;44.644;11.448;2023-03-25T04:31:39;13.90;99.90
12655;DHT22;6392;44.644;11.448;2023-03-25T04:34:10;13.80;99.90
12655;DHT22;6392;44.644;11.448;2023-03-25T04:36:38;13.80;99.90
12655;DHT22;6392;44.644;11.448;2023-03-25T04:39:08;13.80;99.90
12655;DHT22;6392;44.644;11.448;2023-03-25T04:41:36;13.80;99.90
12655;DHT22;6392;44.644;11.448;2023-03-25T04:44:04;13.80;99.90
12655;DHT22;6392;44.644;11.448;2023-03-25T04:46:35;13.80;99.90
12655;DHT22;6392;44.644;11.448;2023-03-25T04:49:03;13.90;99.90
12655;DHT22;6392;44.644;11.448;2023-03-25T04:51:38;13.90;99.90
12655;DHT22;6392;44.644;11.448;2023-03-25T04:54:09;14.00;99.90
12655;DHT22;6392;44.644;11.448;2023-03-25T04:56:36;14.00;99.90
12655;DHT22;6392;44.644;11.448;2023-03-25T04:59:04;14.00;99.90
12655;DHT22;6392;44.644;11.448;2023-03-25T05:01:31;13.90;99.90
12655;DHT22;6392;44.644;11.448;2023-03-25T05:04:01;13.90;99.90
12655;DHT22;6392;44.644;11.448;2023-03-25T05:06:31;13.80;99.90
12655;DHT22;6392;44.644;11.448;2023-03-25T05:08:59;13.80;99.90
12655;DHT22;6392;44.644;11.448;2023-03-25T05:11:28;13.70;99.90
12655;DHT22;6392;44.644;11.448;2023-03-25T05:13:55;13.70;99.90
12655;DHT22;6392;44.644;11.448;2023-03-25T05:16:23;13.60;99.90
12655;DHT22;6392;44.644;11.448;2023-03-25T05:18:50;13.50;99.90
12655;DHT22;6392;44.644;11.448;2023-03-25T05:21:18;13.50;99.90
12655;DHT22;6392;44.644;11.448;2023-03-25T05:23:46;13.50;99.90
12655;DHT22;6392;44.644;11.448;2023-03-25T05:26:13;13.50;99.90
12655;DHT22;6392;44.644;11.448;2023-03-25T05:28:40;13.50;99.90
12655;DHT22;6392;44.644;11.448;2023-03-25T05:31:07;13.40;99.90
12655;DHT22;6392;44.644;11.448;2023-03-25T05:33:35;13.40;99.90
12655;DHT22;6392;44.644;11.448;2023-03-25T05:36:08;13.40;99.90
12655;DHT22;6392;44.644;11.448;2023-03-25T05:38:36;13.40;99.90
12655;DHT22;6392;44.644;11.448;2023-03-25T05:41:06;13.40;99.90
12655;DHT22;6392;44.644;11.448;2023-03-25T05:43:35;13.40;99.90
12655;DHT22;6392;44.644;11.448;2023-03-25T05:46:03;13.40;99.90
12655;DHT22;6392;44.644;11.448;2023-03-25T05:48:30;13.30;99.90
12655;DHT22;6392;44.644;11.448;2023-03-25T05:50:58;13.30;99.90
12655;DHT22;6392;44.644;11.448;2023-03-25T05:53:25;13.30;99.90
12655;DHT22;6392;44.644;11.448;2023-03-25T05:55:56;13.40;99.90
12655;DHT22;6392;44.644;11.448;2023-03-25T05:58:24;13.40;99.90
12655;DHT22;6392;44.644;11.448;2023-03-25T06:00:51;13.40;99.90
12655;DHT22;6392;44.644;11.448;2023-03-25T06:03:19;13.50;99.90
12655;DHT22;6392;44.644;11.448;2023-03-25T06:05:46;13.50;99.90
12655;DHT22;6392;44.644;11.448;2023-03-25T06:08:13;13.60;99.90
12655;DHT22;6392;44.644;11.448;2023-03-25T06:10:41;13.60;99.90
12655;DHT22;6392;44.644;11.448;2023-03-25T06:13:11;13.70;99.90
12655;DHT22;6392;44.644;11.448;2023-03-25T06:15:39;13.80;99.90
12655;DHT22;6392;44.644;11.448;2023-03-25T06:18:06;13.90;99.90
12655;DHT22;6392;44.644;11.448;2023-03-25T06:20:35;13.90;99.90
12655;DHT22;6392;44.644;11.448;2023-03-25T06:23:02;14.00;99.90
12655;DHT22;6392;44.644;11.448;2023-03-25T06:25:29;14.00;99.90
12655;DHT22;6392;44.644;11.448;2023-03-25T06:27:56;14.10;99.90
12655;DHT22;6392;44.644;11.448;2023-03-25T06:30:29;14.20;99.90
12655;DHT22;6392;44.644;11.448;2023-03-25T06:32:56;14.20;99.90
12655;DHT22;6392;44.644;11.448;2023-03-25T06:35:27;14.30;99.90
12655;DHT22;6392;44.644;11.448;2023-03-25T06:37:55;14.30;99.90
12655;DHT22;6392;44.644;11.448;2023-03-25T06:40:22;14.30;99.90
12655;DHT22;6392;44.644;11.448;2023-03-25T06:42:49;14.40;99.90
12655;DHT22;6392;44.644;11.448;2023-03-25T06:45:16;14.40;99.90
12655;DHT22;6392;44.644;11.448;2023-03-25T06:47:45;14.50;99.90
12655;DHT22;6392;44.644;11.448;2023-03-25T06:50:12;14.60;99.90
12655;DHT22;6392;44.644;11.448;2023-03-25T06:52:39;14.60;99.90
12655;DHT22;6392;44.644;11.448;2023-03-25T06:55:07;14.70;99.90
12655;DHT22;6392;44.644;11.448;2023-03-25T06:57:34;14.70;99.90
12655;DHT22;6392;44.644;11.448;2023-03-25T07:00:01;14.80;99.90
12655;DHT22;6392;44.644;11.448;2023-03-25T07:02:30;14.80;99.90
12655;DHT22;6392;44.644;11.448;2023-03-25T07:04:58;14.90;99.90
12655;DHT22;6392;44.644;11.448;2023-03-25T07:07:25;14.90;99.90
12655;DHT22;6392;44.644;11.448;2023-03-25T07:09:53;15.00;99.90
12655;DHT22;6392;44.644;11.448;2023-03-25T07:12:20;15.10;99.90
12655;DHT22;6392;44.644;11.448;2023-03-25T07:14:50;15.10;99.90
12655;DHT22;6392;44.644;11.448;2023-03-25T07:17:18;15.10;99.90
12655;DHT22;6392;44.644;11.448;2023-03-25T07:19:45;15.20;99.90
12655;DHT22;6392;44.644;11.448;2023-03-25T07:22:13;15.20;99.90
12655;DHT22;6392;44.644;11.448;2023-03-25T07:24:41;15.30;99.90
12655;DHT22;6392;44.644;11.448;2023-03-25T07:27:10;15.30;99.90
12655;DHT22;6392;44.644;11.448;2023-03-25T07:29:37;15.40;99.90
12655;DHT22;6392;44.644;11.448;2023-03-25T07:32:05;15.50;99.90
12655;DHT22;6392;44.644;11.448;2023-03-25T07:34:32;15.40;99.90
12655;DHT22;6392;44.644;11.448;2023-03-25T07:36:59;15.50;99.90
12655;DHT22;6392;44.644;11.448;2023-03-25T07:39:28;15.50;99.90
12655;DHT22;6392;44.644;11.448;2023-03-25T07:41:55;15.60;99.90
12655;DHT22;6392;44.644;11.448;2023-03-25T07:44:22;15.60;99.90
12655;DHT22;6392;44.644;11.448;2023-03-25T07:46:49;15.70;99.90
12655;DHT22;6392;44.644;11.448;2023-03-25T07:49:16;15.70;99.90
12655;DHT22;6392;44.644;11.448;2023-03-25T07:51:44;15.80;99.90
12655;DHT22;6392;44.644;11.448;2023-03-25T07:54:11;15.80;99.90
12655;DHT22;6392;44.644;11.448;2023-03-25T07:56:40;15.80;99.90
12655;DHT22;6392;44.644;11.448;2023-03-25T07:59:07;15.80;99.90
12655;DHT22;6392;44.644;11.448;2023-03-25T08:01:34;15.80;99.90
12655;DHT22;6392;44.644;11.448;2023-03-25T08:04:01;15.90;99.90
12655;DHT22;6392;44.644;11.448;2023-03-25T08:06:28;15.90;99.90
12655;DHT22;6392;44.644;11.448;2023-03-25T08:08:55;15.90;99.90
12655;DHT22;6392;44.644;11.448;2023-03-25T08:11:22;16.00;99.90
12655;DHT22;6392;44.644;11.448;2023-03-25T08:13:51;16.00;99.90
12655;DHT22;6392;44.644;11.448;2023-03-25T08:16:18;16.00;99.90
12655;DHT22;6392;44.644;11.448;2023-03-25T08:18:45;16.10;99.90
12655;DHT22;6392;44.644;11.448;2023-03-25T08:21:12;16.10;99.90
12655;DHT22;6392;44.644;11.448;2023-03-25T08:23:39;16.10;99.90
12655;DHT22;6392;44.644;11.448;2023-03-25T08:26:09;16.20;99.90
12655;DHT22;6392;44.644;11.448;2023-03-25T08:28:36;16.30;99.90
12655;DHT22;6392;44.644;11.448;2023-03-25T08:31:06;16.30;99.90
12655;DHT22;6392;44.644;11.448;2023-03-25T08:33:34;16.30;99.90
12655;DHT22;6392;44.644;11.448;2023-03-25T08:36:05;16.40;99.90
12655;DHT22;6392;44.644;11.448;2023-03-25T08:38:32;16.40;99.90
12655;DHT22;6392;44.644;11.448;2023-03-25T08:40:59;16.50;99.90
12655;DHT22;6392;44.644;11.448;2023-03-25T08:43:27;16.50;99.90
12655;DHT22;6392;44.644;11.448;2023-03-25T08:45:54;16.60;99.90
12655;DHT22;6392;44.644;11.448;2023-03-25T08:48:22;16.60;99.90
12655;DHT22;6392;44.644;11.448;2023-03-25T08:50:50;16.70;99.90
12655;DHT22;6392;44.644;11.448;2023-03-25T08:53:17;16.70;99.90
12655;DHT22;6392;44.644;11.448;2023-03-25T08:55:45;16.70;99.90
12655;DHT22;6392;44.644;11.448;2023-03-25T08:58:12;16.70;99.90
12655;DHT22;6392;44.644;11.448;2023-03-25T09:00:38;16.80;99.90
12655;DHT22;6392;44.644;11.448;2023-03-25T09:03:06;16.80;99.90
12655;DHT22;6392;44.644;11.448;2023-03-25T09:05:35;16.80;99.90
12655;DHT22;6392;44.644;11.448;2023-03-25T09:08:04;16.90;99.90
12655;DHT22;6392;44.644;11.448;2023-03-25T09:10:31;16.90;99.90
12655;DHT22;6392;44.644;11.448;2023-03-25T09:12:58;16.90;99.90
12655;DHT22;6392;44.644;11.448;2023-03-25T09:15:25;16.90;99.90
12655;DHT22;6392;44.644;11.448;2023-03-25T09:17:52;17.00;99.90
12655;DHT22;6392;44.644;11.448;2023-03-25T09:20:20;17.10;99.90
12655;DHT22;6392;44.644;11.448;2023-03-25T09:22:48;17.10;99.90
12655;DHT22;6392;44.644;11.448;2023-03-25T09:25:15;17.20;99.90
12655;DHT22;6392;44.644;11.448;2023-03-25T09:27:42;17.20;99.90
12655;DHT22;6392;44.644;11.448;2023-03-25T09:30:10;17.30;99.90
12655;DHT22;6392;44.644;11.448;2023-03-25T09:32:38;17.30;99.90
12655;DHT22;6392;44.644;11.448;2023-03-25T09:35:06;17.40;99.90
12655;DHT22;6392;44.644;11.448;2023-03-25T09:37:33;17.40;99.90
12655;DHT22;6392;44.644;11.448;2023-03-25T09:40:02;17.40;99.90
12655;DHT22;6392;44.644;11.448;2023-03-25T09:42:36;17.50;99.90
12655;DHT22;6392;44.644;11.448;2023-03-25T09:45:15;17.50;99.90
12655;DHT22;6392;44.644;11.448;2023-03-25T09:47:51;17.60;99.90
12655;DHT22;6392;44.644;11.448;2023-03-25T09:50:21;17.70;99.90
12655;DHT22;6392;44.644;11.448;2023-03-25T09:52:54;17.70;99.90
12655;DHT22;6392;44.644;11.448;2023-03-25T09:55:25;17.80;99.90
12655;DHT22;6392;44.644;11.448;2023-03-25T09:57:59;17.80;99.90
12655;DHT22;6392;44.644;11.448;2023-03-25T10:00:26;17.90;99.90
12655;DHT22;6392;44.644;11.448;2023-03-25T10:03:02;17.90;99.90
12655;DHT22;6392;44.644;11.448;2023-03-25T10:05:44;18.00;99.90
12655;DHT22;6392;44.644;11.448;2023-03-25T10:08:21;18.10;99.90
12655;DHT22;6392;44.644;11.448;2023-03-25T10:11:00;18.20;99.90
12655;DHT22;6392;44.644;11.448;2023-03-25T10:13:37;18.20;99.90
12655;DHT22;6392;44.644;11.448;2023-03-25T10:16:12;18.30;99.90
12655;DHT22;6392;44.644;11.448;2023-03-25T10:18:55;18.40;99.90
12655;DHT22;6392;44.644;11.448;2023-03-25T10:21:29;18.40;99.90
12655;DHT22;6392;44.644;11.448;2023-03-25T10:24:05;18.60;99.90
12655;DHT22;6392;44.644;11.448;2023-03-25T10:26:44;18.70;99.90
12655;DHT22;6392;44.644;11.448;2023-03-25T10:29:15;18.70;99.90
12655;DHT22;6392;44.644;11.448;2023-03-25T10:31:49;18.80;99.90
12655;DHT22;6392;44.644;11.448;2023-03-25T10:34:19;18.90;99.90
12655;DHT22;6392;44.644;11.448;2023-03-25T10:36:52;19.00;99.90
12655;DHT22;6392;44.644;11.448;2023-03-25T10:39:23;19.00;99.90
12655;DHT22;6392;44.644;11.448;2023-03-25T10:42:14;19.10;99.90
12655;DHT22;6392;44.644;11.448;2023-03-25T10:44:44;19.10;99.90
12655;DHT22;6392;44.644;11.448;2023-03-25T10:47:14;19.10;99.90
12655;DHT22;6392;44.644;11.448;2023-03-25T10:49:42;19.10;99.90
12655;DHT22;6392;44.644;11.448;2023-03-25T10:52:11;19.20;99.90
12655;DHT22;6392;44.644;11.448;2023-03-25T10:54:40;19.20;99.90
12655;DHT22;6392;44.644;11.448;2023-03-25T10:57:16;19.30;99.90
12655;DHT22;6392;44.644;11.448;2023-03-25T10:59:58;19.40;99.90
12655;DHT22;6392;44.644;11.448;2023-03-25T11:02:28;19.50;99.90
12655;DHT22;6392;44.644;11.448;2023-03-25T11:04:57;19.50;99.90
12655;DHT22;6392;44.644;11.448;2023-03-25T11:07:28;19.50;99.90
12655;DHT22;6392;44.644;11.448;2023-03-25T11:10:14;19.60;99.90
12655;DHT22;6392;44.644;11.448;2023-03-25T11:12:44;19.70;99.90
12655;DHT22;6392;44.644;11.448;2023-03-25T11:15:14;19.70;99.90
12655;DHT22;6392;44.644;11.448;2023-03-25T11:17:43;19.80;99.90
12655;DHT22;6392;44.644;11.448;2023-03-25T11:20:18;19.90;99.90
12655;DHT22;6392;44.644;11.448;2023-03-25T11:22:49;19.90;99.90
12655;DHT22;6392;44.644;11.448;2023-03-25T11:25:19;19.90;99.90
12655;DHT22;6392;44.644;11.448;2023-03-25T11:27:54;20.00;99.90
12655;DHT22;6392;44.644;11.448;2023-03-25T11:30:23;20.00;99.90
12655;DHT22;6392;44.644;11.448;2023-03-25T11:33:03;20.10;99.90
12655;DHT22;6392;44.644;11.448;2023-03-25T11:35:32;20.20;99.90
12655;DHT22;6392;44.644;11.448;2023-03-25T11:38:13;20.20;99.90
12655;DHT22;6392;44.644;11.448;2023-03-25T11:40:51;20.20;99.90
12655;DHT22;6392;44.644;11.448;2023-03-25T11:43:22;20.20;99.90
12655;DHT22;6392;44.644;11.448;2023-03-25T11:45:50;20.20;99.90
12655;DHT22;6392;44.644;11.448;2023-03-25T11:48:19;20.30;99.90
12655;DHT22;6392;44.644;11.448;2023-03-25T11:50:49;20.30;99.90
12655;DHT22;6392;44.644;11.448;2023-03-25T11:53:20;20.40;99.90
12655;DHT22;6392;44.644;11.448;2023-03-25T11:55:50;20.50;99.90
12655;DHT22;6392;44.644;11.448;2023-03-25T11:58:24;20.50;99.90
12655;DHT22;6392;44.644;11.448;2023-03-25T12:01:00;20.50;99.90
12655;DHT22;6392;44.644;11.448;2023-03-25T12:03:30;20.60;99.90
12655;DHT22;6392;44.644;11.448;2023-03-25T12:06:01;20.70;99.90
12655;DHT22;6392;44.644;11.448;2023-03-25T12:08:31;20.70;99.90
12655;DHT22;6392;44.644;11.448;2023-03-25T12:11:09;20.80;99.90
12655;DHT22;6392;44.644;11.448;2023-03-25T12:13:57;20.80;99.90
12655;DHT22;6392;44.644;11.448;2023-03-25T12:16:36;20.90;99.90
12655;DHT22;6392;44.644;11.448;2023-03-25T12:19:14;20.90;99.90
12655;DHT22;6392;44.644;11.448;2023-03-25T12:22:00;21.10;99.90
12655;DHT22;6392;44.644;11.448;2023-03-25T12:24:41;21.20;99.90
12655;DHT22;6392;44.644;11.448;2023-03-25T12:27:20;21.30;99.90
12655;DHT22;6392;44.644;11.448;2023-03-25T12:29:54;21.40;99.90
12655;DHT22;6392;44.644;11.448;2023-03-25T12:32:32;21.50;99.90
12655;DHT22;6392;44.644;11.448;2023-03-25T12:35:13;21.50;99.90
12655;DHT22;6392;44.644;11.448;2023-03-25T12:37:59;21.60;99.90
12655;DHT22;6392;44.644;11.448;2023-03-25T12:40:46;21.70;99.90
12655;DHT22;6392;44.644;11.448;2023-03-25T12:43:19;21.90;99.90
12655;DHT22;6392;44.644;11.448;2023-03-25T12:46:03;22.00;99.90
12655;DHT22;6392;44.644;11.448;2023-03-25T12:48:57;22.10;99.90
12655;DHT22;6392;44.644;11.448;2023-03-25T12:51:36;22.30;99.90
12655;DHT22;6392;44.644;11.448;2023-03-25T12:54:15;22.30;99.90
12655;DHT22;6392;44.644;11.448;2023-03-25T12:56:52;22.40;99.90
12655;DHT22;6392;44.644;11.448;2023-03-25T12:59:50;22.50;97.70
12655;DHT22;6392;44.644;11.448;2023-03-25T13:02:37;22.60;97.90
12655;DHT22;6392;44.644;11.448;2023-03-25T13:05:16;22.70;98.10
12655;DHT22;6392;44.644;11.448;2023-03-25T13:07:47;22.80;97.30
12655;DHT22;6392;44.644;11.448;2023-03-25T13:10:18;22.90;99.00
12655;DHT22;6392;44.644;11.448;2023-03-25T13:12:48;23.00;98.20
12655;DHT22;6392;44.644;11.448;2023-03-25T13:15:18;23.10;97.60
12655;DHT22;6392;44.644;11.448;2023-03-25T13:17:51;23.20;96.90
12655;DHT22;6392;44.644;11.448;2023-03-25T13:20:20;23.30;98.40
12655;DHT22;6392;44.644;11.448;2023-03-25T13:22:51;23.40;97.90
12655;DHT22;6392;44.644;11.448;2023-03-25T13:25:21;23.50;99.60
12655;DHT22;6392;44.644;11.448;2023-03-25T13:27:50;23.70;99.50
12655;DHT22;6392;44.644;11.448;2023-03-25T13:30:26;23.70;97.50
12655;DHT22;6392;44.644;11.448;2023-03-25T13:32:59;23.80;98.70
12655;DHT22;6392;44.644;11.448;2023-03-25T13:35:36;23.90;99.90
12655;DHT22;6392;44.644;11.448;2023-03-25T13:38:08;24.00;97.40
12655;DHT22;6392;44.644;11.448;2023-03-25T13:40:43;24.10;98.40
12655;DHT22;6392;44.644;11.448;2023-03-25T13:43:19;24.20;97.00
12655;DHT22;6392;44.644;11.448;2023-03-25T13:45:51;24.20;95.80
12655;DHT22;6392;44.644;11.448;2023-03-25T13:48:27;24.30;98.00
12655;DHT22;6392;44.644;11.448;2023-03-25T13:51:00;24.50;96.40
12655;DHT22;6392;44.644;11.448;2023-03-25T13:53:32;24.60;97.10
12655;DHT22;6392;44.644;11.448;2023-03-25T13:59:08;24.80;96.80
12655;DHT22;6392;44.644;11.448;2023-03-25T14:02:06;24.90;95.50
12655;DHT22;6392;44.644;11.448;2023-03-25T14:04:59;24.90;94.60
12655;DHT22;6392;44.644;11.448;2023-03-25T14:10:39;25.30;96.10
12655;DHT22;6392;44.644;11.448;2023-03-25T14:13:10;25.40;93.70
12655;DHT22;6392;44.644;11.448;2023-03-25T14:15:45;25.40;93.20
12655;DHT22;6392;44.644;11.448;2023-03-25T14:18:17;25.60;93.50
12655;DHT22;6392;44.644;11.448;2023-03-25T14:20:47;25.70;93.30
12655;DHT22;6392;44.644;11.448;2023-03-25T14:23:16;25.70;93.40
12655;DHT22;6392;44.644;11.448;2023-03-25T14:25:47;25.80;93.60
12655;DHT22;6392;44.644;11.448;2023-03-25T14:28:18;25.90;92.00
12655;DHT22;6392;44.644;11.448;2023-03-25T14:31:08;26.00;92.50
12655;DHT22;6392;44.644;11.448;2023-03-25T14:34:12;26.10;92.10
12655;DHT22;6392;44.644;11.448;2023-03-25T14:37:21;26.20;92.30
12655;DHT22;6392;44.644;11.448;2023-03-25T14:39:52;26.40;91.50
12655;DHT22;6392;44.644;11.448;2023-03-25T14:42:24;26.50;90.90
12655;DHT22;6392;44.644;11.448;2023-03-25T14:45:27;26.50;90.40
12655;DHT22;6392;44.644;11.448;2023-03-25T14:47:50;26.50;89.00
12655;DHT22;6392;44.644;11.448;2023-03-25T14:50:31;26.60;90.00
12655;DHT22;6392;44.644;11.448;2023-03-25T14:53:03;26.60;88.10
12655;DHT22;6392;44.644;11.448;2023-03-25T14:55:32;26.60;90.00
12655;DHT22;6392;44.644;11.448;2023-03-25T14:58:02;26.70;88.30
12655;DHT22;6392;44.644;11.448;2023-03-25T15:00:33;26.80;87.70
12655;DHT22;6392;44.644;11.448;2023-03-25T15:03:03;26.90;88.20
12655;DHT22;6392;44.644;11.448;2023-03-25T15:05:36;27.00;84.30
12655;DHT22;6392;44.644;11.448;2023-03-25T15:08:12;27.00;83.00
12655;DHT22;6392;44.644;11.448;2023-03-25T15:10:42;27.10;86.00
12655;DHT22;6392;44.644;11.448;2023-03-25T15:13:15;27.30;80.00
12655;DHT22;6392;44.644;11.448;2023-03-25T15:15:57;27.30;78.80
12655;DHT22;6392;44.644;11.448;2023-03-25T15:24:22;27.40;74.90
12655;DHT22;6392;44.644;11.448;2023-03-25T15:26:54;27.40;74.30
12655;DHT22;6392;44.644;11.448;2023-03-25T15:29:42;27.40;75.10
12655;DHT22;6392;44.644;11.448;2023-03-25T15:32:28;27.60;74.30
12655;DHT22;6392;44.644;11.448;2023-03-25T15:38:45;27.80;73.40
12655;DHT22;6392;44.644;11.448;2023-03-25T15:41:34;27.90;71.80
12655;DHT22;6392;44.644;11.448;2023-03-25T15:47:09;28.00;70.00
12655;DHT22;6392;44.644;11.448;2023-03-25T15:52:51;27.80;69.70
12655;DHT22;6392;44.644;11.448;2023-03-25T15:55:25;27.80;68.70
12655;DHT22;6392;44.644;11.448;2023-03-25T15:57:58;27.90;66.30
12655;DHT22;6392;44.644;11.448;2023-03-25T16:00:29;27.90;66.40
12655;DHT22;6392;44.644;11.448;2023-03-25T16:03:03;28.00;65.50
12655;DHT22;6392;44.644;11.448;2023-03-25T16:05:33;28.00;64.70
12655;DHT22;6392;44.644;11.448;2023-03-25T16:08:07;28.00;62.00
12655;DHT22;6392;44.644;11.448;2023-03-25T16:10:34;28.10;63.20
12655;DHT22;6392;44.644;11.448;2023-03-25T16:13:09;28.10;64.30
12655;DHT22;6392;44.644;11.448;2023-03-25T16:15:37;27.90;60.90
12655;DHT22;6392;44.644;11.448;2023-03-25T16:18:08;27.40;60.40
12655;DHT22;6392;44.644;11.448;2023-03-25T16:20:37;27.00;61.60
12655;DHT22;6392;44.644;11.448;2023-03-25T16:23:06;26.50;60.50
12655;DHT22;6392;44.644;11.448;2023-03-25T16:25:35;26.10;62.30
12655;DHT22;6392;44.644;11.448;2023-03-25T16:28:06;25.80;63.20